map of PALH home
PALH - Airport
Location
City:  Anchorage, Alaska, United States
Name:Lake Hood Airport
ICAO:PALH
FAA LID:LHD

Details
Type:Airport (Airfield)
Use:Public/Civil
Latitude:6111'12"N (61.186639)
Longitude:14957'55"W (-149.965393)
Datum:WGS 1984
Elevation:79 ft (24 m)
Variation:15.85E (WMM2015v2 magnetic declination)
-0.31 annual change
Runways:1
Longest:2200 × 75 ft (671 × 23 m)

Time
Time Zone:UTC-9 (DST-8)
Local Time:

Weather
METAR:PALH 041405Z 05004KT 10SM BKN008 OVC046 M06/M07 A3005 RMK AO2 T10561072

Related Locations
Nearby:
Farthest:FAAF: 10552 mi / 16981 km
Struisbaai [Andrew's Field Airport], WC, ZA

Find:

   beyond  
but within

Other Information
Maps:
NOTAMs:
Links:
Sources:

  
  • flag of United States
  • flag of Alaska
  • flag of Anchorage
  

Sectional Chart

Flight Planning
at skyvector.com

Satellite Image

Google Maps Satellite view

 

Copyright © 2004-2019 Karl L. Swartz. All rights reserved.
The Great Circle Mapper name and logo are trademarks of the Great Circle Mapper.
All other trademarks mentioned herein belong to their respective owners.
Please see credits for attibutions and further copyright information.

  Follow gcmap on Facebook Follow gcmap on Twitter GCmap on LinkedIn

hCard Microformat

Geo Microformat